Laketon, IN (46943)

1:45 PM EDT on August 24, 2016 (GMT -0400)
NW North Manchester | | Change Station

Elev 801 ft 41.01 °N, 85.79 °W | Updated 12 minutes ago

Rain
Rain
76.6 °F
Feels Like 78 °F
N
4.7
Wind Variable Wind from West

Today
High -- | Low -- °F
--% Chance of Precip.
Yesterday
High -- | Low -- °F
Precip. -- in
Pressure 30.05 in
Visibility 5.0 miles
Clouds Mostly Cloudy 1100 ft
Mostly Cloudy 2100 ft
Heat Index 78 °F
Dew Point 71 °F
Humidity 82%
Rainfall 0.00 in
Snow Depth Not available.
7:02 AM 8:27 PM
Waning Gibbous, 55% visible
METAR KRCR 241735Z AUTO 22005KT 5SM RA BKN011 BKN021 24/23 A3005 RMK AO2 LTG DSNT SW
Pressure 30.05 in
Visibility 5.0 miles
Clouds Mostly Cloudy 1100 ft
Mostly Cloudy 2100 ft
Heat Index 78 °F
Dew Point 71 °F
Humidity 82%
Rainfall 0.00 in
Snow Depth Not available.
7:02 AM 8:27 PM
Waning Gibbous, 55% visible
METAR KRCR 241735Z AUTO 22005KT 5SM RA BKN011 BKN021 24/23 A3005 RMK AO2 LTG DSNT SW

10-Day Weather Forecast

Almanac

Astronomy

Aug. 24, 2016 Rise Set
Actual Time
Civil Twilight
Nautical Twilight
Astronomical Twilight
Moon
Length of Visible Light
Length of Day
Tomorrow will be .
, % of the Moon is Illuminated

Today's Extremes

State Highs State Lows

Community

WunderPhotos

Upload Photos

1,934,661 photos uploaded!

WunderBlog® & News

Nearby

Air Quality

  Air Quality AQ Index Pollutant
Not available.

Snow Depth

Station Depth Elevation

Earthquake Activity

City Distance Mag. Time & Date
Minimum magnitude displayed is 2.5.

Coastal Water Temperatures

Place Temperature

Stations

Nearby Weather Stations

Station Location Temp. Windchill Dew Point Humidity Wind Precip. Elev Updated Type
                   

Watches & Warnings

There are currently no watches in effect.